sensor_id;sensor_type;location;lat;lon;timestamp;temperature;humidity
22645;DHT22;11489;50.834;6.752;2023-04-01T00:00:48;10.60;90.40
22645;DHT22;11489;50.834;6.752;2023-04-01T00:03:17;10.50;90.40
22645;DHT22;11489;50.834;6.752;2023-04-01T00:05:43;10.60;90.40
22645;DHT22;11489;50.834;6.752;2023-04-01T00:08:08;10.60;90.40
22645;DHT22;11489;50.834;6.752;2023-04-01T00:10:34;10.60;90.40
22645;DHT22;11489;50.834;6.752;2023-04-01T00:13:00;10.60;90.50
22645;DHT22;11489;50.834;6.752;2023-04-01T00:15:33;10.60;90.50
22645;DHT22;11489;50.834;6.752;2023-04-01T00:17:59;10.60;90.30
22645;DHT22;11489;50.834;6.752;2023-04-01T00:20:26;10.60;90.50
22645;DHT22;11489;50.834;6.752;2023-04-01T00:22:51;10.60;90.50
22645;DHT22;11489;50.834;6.752;2023-04-01T00:25:17;10.60;90.40
22645;DHT22;11489;50.834;6.752;2023-04-01T00:27:43;10.60;90.40
22645;DHT22;11489;50.834;6.752;2023-04-01T00:30:10;10.60;90.40
22645;DHT22;11489;50.834;6.752;2023-04-01T00:32:36;10.60;90.40
22645;DHT22;11489;50.834;6.752;2023-04-01T00:35:02;10.60;90.50
22645;DHT22;11489;50.834;6.752;2023-04-01T00:37:28;10.60;90.40
22645;DHT22;11489;50.834;6.752;2023-04-01T00:39:54;10.60;90.40
22645;DHT22;11489;50.834;6.752;2023-04-01T00:42:20;10.60;90.40
22645;DHT22;11489;50.834;6.752;2023-04-01T00:44:53;10.60;90.50
22645;DHT22;11489;50.834;6.752;2023-04-01T00:47:20;10.70;90.30
22645;DHT22;11489;50.834;6.752;2023-04-01T00:49:49;10.60;90.40
22645;DHT22;11489;50.834;6.752;2023-04-01T00:52:18;10.60;90.40
22645;DHT22;11489;50.834;6.752;2023-04-01T00:54:46;10.70;90.40
22645;DHT22;11489;50.834;6.752;2023-04-01T00:57:20;10.60;90.40
22645;DHT22;11489;50.834;6.752;2023-04-01T00:59:49;10.60;90.40
22645;DHT22;11489;50.834;6.752;2023-04-01T01:02:18;10.60;90.40
22645;DHT22;11489;50.834;6.752;2023-04-01T01:04:47;10.60;90.40
22645;DHT22;11489;50.834;6.752;2023-04-01T01:12:44;10.60;90.40
22645;DHT22;11489;50.834;6.752;2023-04-01T01:17:57;10.60;90.20
22645;DHT22;11489;50.834;6.752;2023-04-01T01:20:42;10.60;90.40
22645;DHT22;11489;50.834;6.752;2023-04-01T01:24:07;10.60;90.30
22645;DHT22;11489;50.834;6.752;2023-04-01T01:37:26;10.60;90.30
22645;DHT22;11489;50.834;6.752;2023-04-01T01:39:56;10.60;90.50
22645;DHT22;11489;50.834;6.752;2023-04-01T01:42:25;10.60;90.50
22645;DHT22;11489;50.834;6.752;2023-04-01T01:44:54;10.60;90.50
22645;DHT22;11489;50.834;6.752;2023-04-01T01:47:22;10.60;90.50
22645;DHT22;11489;50.834;6.752;2023-04-01T01:49:50;10.60;90.50
22645;DHT22;11489;50.834;6.752;2023-04-01T01:52:17;10.50;90.50
22645;DHT22;11489;50.834;6.752;2023-04-01T01:54:48;10.50;90.50
22645;DHT22;11489;50.834;6.752;2023-04-01T01:57:14;10.50;90.50
22645;DHT22;11489;50.834;6.752;2023-04-01T01:59:43;10.50;90.50
22645;DHT22;11489;50.834;6.752;2023-04-01T02:02:11;10.50;90.60
22645;DHT22;11489;50.834;6.752;2023-04-01T02:04:40;10.50;90.50
22645;DHT22;11489;50.834;6.752;2023-04-01T02:07:11;10.40;90.50
22645;DHT22;11489;50.834;6.752;2023-04-01T02:09:39;10.40;90.50
22645;DHT22;11489;50.834;6.752;2023-04-01T02:12:09;10.40;90.50
22645;DHT22;11489;50.834;6.752;2023-04-01T02:14:58;10.40;90.50
22645;DHT22;11489;50.834;6.752;2023-04-01T02:17:27;10.40;90.30
22645;DHT22;11489;50.834;6.752;2023-04-01T02:20:02;10.30;90.50
22645;DHT22;11489;50.834;6.752;2023-04-01T02:22:35;10.30;90.50
22645;DHT22;11489;50.834;6.752;2023-04-01T02:25:11;10.20;90.60
22645;DHT22;11489;50.834;6.752;2023-04-01T02:27:38;10.20;90.60
22645;DHT22;11489;50.834;6.752;2023-04-01T02:30:05;10.20;90.70
22645;DHT22;11489;50.834;6.752;2023-04-01T02:32:34;10.10;90.80
22645;DHT22;11489;50.834;6.752;2023-04-01T02:35:00;10.10;90.80
22645;DHT22;11489;50.834;6.752;2023-04-01T02:37:31;10.00;90.90
22645;DHT22;11489;50.834;6.752;2023-04-01T02:40:07;10.00;90.90
22645;DHT22;11489;50.834;6.752;2023-04-01T02:42:33;10.00;90.80
22645;DHT22;11489;50.834;6.752;2023-04-01T02:44:59;10.00;91.00
22645;DHT22;11489;50.834;6.752;2023-04-01T02:47:25;9.90;91.00
22645;DHT22;11489;50.834;6.752;2023-04-01T02:49:50;9.90;91.00
22645;DHT22;11489;50.834;6.752;2023-04-01T02:52:16;10.00;91.00
22645;DHT22;11489;50.834;6.752;2023-04-01T02:54:42;10.00;91.00
22645;DHT22;11489;50.834;6.752;2023-04-01T02:57:07;10.00;91.00
22645;DHT22;11489;50.834;6.752;2023-04-01T02:59:33;10.00;91.00
22645;DHT22;11489;50.834;6.752;2023-04-01T03:01:59;10.00;91.00
22645;DHT22;11489;50.834;6.752;2023-04-01T03:04:24;10.00;91.00
22645;DHT22;11489;50.834;6.752;2023-04-01T03:06:50;10.10;91.00
22645;DHT22;11489;50.834;6.752;2023-04-01T03:09:16;10.00;91.00
22645;DHT22;11489;50.834;6.752;2023-04-01T03:11:42;10.10;91.10
22645;DHT22;11489;50.834;6.752;2023-04-01T03:14:08;10.00;91.10
22645;DHT22;11489;50.834;6.752;2023-04-01T03:16:33;10.00;91.10
22645;DHT22;11489;50.834;6.752;2023-04-01T03:18:59;10.10;91.10
22645;DHT22;11489;50.834;6.752;2023-04-01T03:21:27;10.10;91.10
22645;DHT22;11489;50.834;6.752;2023-04-01T03:23:53;10.10;91.10
22645;DHT22;11489;50.834;6.752;2023-04-01T03:26:18;10.10;91.10
22645;DHT22;11489;50.834;6.752;2023-04-01T03:28:44;10.10;91.10
22645;DHT22;11489;50.834;6.752;2023-04-01T03:31:10;10.10;91.10
22645;DHT22;11489;50.834;6.752;2023-04-01T03:33:36;10.10;91.10
22645;DHT22;11489;50.834;6.752;2023-04-01T03:36:02;10.10;91.10
22645;DHT22;11489;50.834;6.752;2023-04-01T03:38:34;10.10;91.10
22645;DHT22;11489;50.834;6.752;2023-04-01T03:41:00;10.10;91.10
22645;DHT22;11489;50.834;6.752;2023-04-01T03:43:26;10.10;91.10
22645;DHT22;11489;50.834;6.752;2023-04-01T03:45:53;10.10;91.10
22645;DHT22;11489;50.834;6.752;2023-04-01T03:48:20;10.10;91.10
22645;DHT22;11489;50.834;6.752;2023-04-01T03:50:46;10.20;91.10
22645;DHT22;11489;50.834;6.752;2023-04-01T03:53:12;10.10;91.10
22645;DHT22;11489;50.834;6.752;2023-04-01T03:55:38;10.10;91.10
22645;DHT22;11489;50.834;6.752;2023-04-01T03:58:05;10.10;91.10
22645;DHT22;11489;50.834;6.752;2023-04-01T04:00:32;10.10;91.10
22645;DHT22;11489;50.834;6.752;2023-04-01T04:02:58;10.10;91.10
22645;DHT22;11489;50.834;6.752;2023-04-01T04:05:24;10.10;91.10
22645;DHT22;11489;50.834;6.752;2023-04-01T04:07:51;10.10;91.10
22645;DHT22;11489;50.834;6.752;2023-04-01T04:10:17;10.10;91.10
22645;DHT22;11489;50.834;6.752;2023-04-01T04:12:43;10.10;91.20
22645;DHT22;11489;50.834;6.752;2023-04-01T04:15:09;10.10;91.20
22645;DHT22;11489;50.834;6.752;2023-04-01T04:17:35;10.10;91.20
22645;DHT22;11489;50.834;6.752;2023-04-01T04:20:01;10.10;91.20
22645;DHT22;11489;50.834;6.752;2023-04-01T04:22:27;10.00;91.20
22645;DHT22;11489;50.834;6.752;2023-04-01T04:24:53;10.00;91.20
22645;DHT22;11489;50.834;6.752;2023-04-01T04:27:19;10.00;91.20
22645;DHT22;11489;50.834;6.752;2023-04-01T04:29:44;10.00;91.30
22645;DHT22;11489;50.834;6.752;2023-04-01T04:32:10;10.00;91.30
22645;DHT22;11489;50.834;6.752;2023-04-01T04:34:36;10.00;91.30
22645;DHT22;11489;50.834;6.752;2023-04-01T04:37:02;10.00;91.30
22645;DHT22;11489;50.834;6.752;2023-04-01T04:39:27;10.00;91.30
22645;DHT22;11489;50.834;6.752;2023-04-01T04:41:53;10.00;91.40
22645;DHT22;11489;50.834;6.752;2023-04-01T04:44:19;9.90;91.40
22645;DHT22;11489;50.834;6.752;2023-04-01T04:46:44;10.00;91.40
22645;DHT22;11489;50.834;6.752;2023-04-01T04:49:10;10.00;91.50
22645;DHT22;11489;50.834;6.752;2023-04-01T04:51:36;9.90;91.40
22645;DHT22;11489;50.834;6.752;2023-04-01T04:54:03;9.90;91.50
22645;DHT22;11489;50.834;6.752;2023-04-01T04:56:28;9.90;91.50
22645;DHT22;11489;50.834;6.752;2023-04-01T04:58:54;9.90;91.50
22645;DHT22;11489;50.834;6.752;2023-04-01T05:01:20;9.90;91.50
22645;DHT22;11489;50.834;6.752;2023-04-01T05:03:46;9.90;91.60
22645;DHT22;11489;50.834;6.752;2023-04-01T05:06:14;9.90;91.60
22645;DHT22;11489;50.834;6.752;2023-04-01T05:08:41;10.00;91.70
22645;DHT22;11489;50.834;6.752;2023-04-01T05:11:10;10.00;91.70
22645;DHT22;11489;50.834;6.752;2023-04-01T05:13:37;10.00;91.70
22645;DHT22;11489;50.834;6.752;2023-04-01T05:16:02;10.00;91.70
22645;DHT22;11489;50.834;6.752;2023-04-01T05:18:28;10.00;91.70
22645;DHT22;11489;50.834;6.752;2023-04-01T05:20:54;10.00;91.60
22645;DHT22;11489;50.834;6.752;2023-04-01T05:23:21;10.00;91.60
22645;DHT22;11489;50.834;6.752;2023-04-01T05:25:50;10.00;92.00
22645;DHT22;11489;50.834;6.752;2023-04-01T05:28:19;10.00;91.70
22645;DHT22;11489;50.834;6.752;2023-04-01T05:30:45;10.00;91.70
22645;DHT22;11489;50.834;6.752;2023-04-01T05:33:12;10.00;91.80
22645;DHT22;11489;50.834;6.752;2023-04-01T05:35:39;10.00;91.80
22645;DHT22;11489;50.834;6.752;2023-04-01T05:38:05;10.00;91.80
22645;DHT22;11489;50.834;6.752;2023-04-01T05:40:32;10.00;91.80
22645;DHT22;11489;50.834;6.752;2023-04-01T05:42:58;10.00;91.90
22645;DHT22;11489;50.834;6.752;2023-04-01T05:45:24;10.00;91.90
22645;DHT22;11489;50.834;6.752;2023-04-01T05:47:50;10.00;91.80
22645;DHT22;11489;50.834;6.752;2023-04-01T05:50:16;10.00;91.80
22645;DHT22;11489;50.834;6.752;2023-04-01T05:52:42;10.00;91.80
22645;DHT22;11489;50.834;6.752;2023-04-01T05:55:07;10.00;91.80
22645;DHT22;11489;50.834;6.752;2023-04-01T05:57:33;10.00;91.80
22645;DHT22;11489;50.834;6.752;2023-04-01T05:59:59;9.90;91.80
22645;DHT22;11489;50.834;6.752;2023-04-01T06:02:24;9.90;91.90
22645;DHT22;11489;50.834;6.752;2023-04-01T06:04:57;9.90;91.90
22645;DHT22;11489;50.834;6.752;2023-04-01T06:07:27;9.90;92.00
22645;DHT22;11489;50.834;6.752;2023-04-01T06:09:54;9.90;92.00
22645;DHT22;11489;50.834;6.752;2023-04-01T06:15:39;9.90;92.10
22645;DHT22;11489;50.834;6.752;2023-04-01T06:18:49;9.90;92.20
22645;DHT22;11489;50.834;6.752;2023-04-01T06:32:15;9.90;92.30
22645;DHT22;11489;50.834;6.752;2023-04-01T06:37:30;10.00;92.60
22645;DHT22;11489;50.834;6.752;2023-04-01T06:48:29;10.20;92.60
22645;DHT22;11489;50.834;6.752;2023-04-01T06:54:32;10.30;92.50
22645;DHT22;11489;50.834;6.752;2023-04-01T06:56:33;10.30;92.80
22645;DHT22;11489;50.834;6.752;2023-04-01T06:59:10;10.40;92.90
22645;DHT22;11489;50.834;6.752;2023-04-01T07:01:49;10.50;92.90
22645;DHT22;11489;50.834;6.752;2023-04-01T07:04:34;10.60;92.80
22645;DHT22;11489;50.834;6.752;2023-04-01T07:07:21;10.60;92.60
22645;DHT22;11489;50.834;6.752;2023-04-01T07:09:52;10.70;92.40
22645;DHT22;11489;50.834;6.752;2023-04-01T07:12:29;10.70;92.60
22645;DHT22;11489;50.834;6.752;2023-04-01T07:14:56;10.70;92.60
22645;DHT22;11489;50.834;6.752;2023-04-01T07:17:28;10.80;92.30
22645;DHT22;11489;50.834;6.752;2023-04-01T07:20:20;10.80;92.60
22645;DHT22;11489;50.834;6.752;2023-04-01T07:22:50;10.80;92.10
22645;DHT22;11489;50.834;6.752;2023-04-01T07:25:20;10.80;92.20
22645;DHT22;11489;50.834;6.752;2023-04-01T07:27:46;10.80;92.20
22645;DHT22;11489;50.834;6.752;2023-04-01T07:30:22;10.70;92.50
22645;DHT22;11489;50.834;6.752;2023-04-01T07:33:04;10.80;92.00
22645;DHT22;11489;50.834;6.752;2023-04-01T07:35:52;10.80;92.10
22645;DHT22;11489;50.834;6.752;2023-04-01T07:39:22;10.80;92.10
22645;DHT22;11489;50.834;6.752;2023-04-01T07:41:51;10.70;92.00
22645;DHT22;11489;50.834;6.752;2023-04-01T07:50:25;10.60;92.20
22645;DHT22;11489;50.834;6.752;2023-04-01T07:53:33;10.70;92.10
22645;DHT22;11489;50.834;6.752;2023-04-01T07:57:07;10.70;92.40
22645;DHT22;11489;50.834;6.752;2023-04-01T07:59:16;10.70;92.60
22645;DHT22;11489;50.834;6.752;2023-04-01T08:01:57;10.70;92.70
22645;DHT22;11489;50.834;6.752;2023-04-01T08:13:07;10.80;92.50
22645;DHT22;11489;50.834;6.752;2023-04-01T08:21:52;10.90;92.30
22645;DHT22;11489;50.834;6.752;2023-04-01T08:24:22;10.90;92.40
22645;DHT22;11489;50.834;6.752;2023-04-01T08:26:55;10.90;92.40
22645;DHT22;11489;50.834;6.752;2023-04-01T08:29:48;10.90;92.40
22645;DHT22;11489;50.834;6.752;2023-04-01T08:32:15;10.80;92.40
22645;DHT22;11489;50.834;6.752;2023-04-01T08:34:47;10.90;92.80
22645;DHT22;11489;50.834;6.752;2023-04-01T08:37:21;10.80;92.40
22645;DHT22;11489;50.834;6.752;2023-04-01T08:39:53;10.80;92.50
22645;DHT22;11489;50.834;6.752;2023-04-01T08:42:31;10.80;92.60
22645;DHT22;11489;50.834;6.752;2023-04-01T08:45:15;10.80;92.70
22645;DHT22;11489;50.834;6.752;2023-04-01T08:48:07;10.80;92.70
22645;DHT22;11489;50.834;6.752;2023-04-01T08:57:02;10.80;92.50
22645;DHT22;11489;50.834;6.752;2023-04-01T09:05:28;10.70;92.60
22645;DHT22;11489;50.834;6.752;2023-04-01T09:10:56;10.60;92.60
22645;DHT22;11489;50.834;6.752;2023-04-01T09:16:03;10.50;92.90
22645;DHT22;11489;50.834;6.752;2023-04-01T09:30:19;10.70;93.40
22645;DHT22;11489;50.834;6.752;2023-04-01T09:44:25;11.00;93.40
22645;DHT22;11489;50.834;6.752;2023-04-01T09:47:25;11.10;93.40
22645;DHT22;11489;50.834;6.752;2023-04-01T09:50:30;11.20;93.40
22645;DHT22;11489;50.834;6.752;2023-04-01T09:56:00;11.40;93.30
22645;DHT22;11489;50.834;6.752;2023-04-01T10:03:54;11.50;93.40
22645;DHT22;11489;50.834;6.752;2023-04-01T10:36:57;11.80;92.40
22645;DHT22;11489;50.834;6.752;2023-04-01T10:39:51;11.90;93.00
22645;DHT22;11489;50.834;6.752;2023-04-01T10:42:39;11.90;92.30
22645;DHT22;11489;50.834;6.752;2023-04-01T10:59:28;11.90;92.50
22645;DHT22;11489;50.834;6.752;2023-04-01T11:13:24;11.90;93.00
22645;DHT22;11489;50.834;6.752;2023-04-01T11:24:45;12.00;92.80
22645;DHT22;11489;50.834;6.752;2023-04-01T11:38:48;12.10;92.80
22645;DHT22;11489;50.834;6.752;2023-04-01T11:41:37;12.10;92.90
22645;DHT22;11489;50.834;6.752;2023-04-01T11:44:21;12.20;92.70
22645;DHT22;11489;50.834;6.752;2023-04-01T11:58:25;12.10;92.50
22645;DHT22;11489;50.834;6.752;2023-04-01T12:00:57;12.10;92.30
22645;DHT22;11489;50.834;6.752;2023-04-01T12:09:08;12.10;92.90
22645;DHT22;11489;50.834;6.752;2023-04-01T12:14:33;12.30;93.40
22645;DHT22;11489;50.834;6.752;2023-04-01T12:17:27;12.40;93.00
22645;DHT22;11489;50.834;6.752;2023-04-01T12:20:35;12.50;93.20
22645;DHT22;11489;50.834;6.752;2023-04-01T12:31:52;12.60;92.00
22645;DHT22;11489;50.834;6.752;2023-04-01T12:34:42;12.50;91.70
22645;DHT22;11489;50.834;6.752;2023-04-01T12:37:25;12.50;91.90
22645;DHT22;11489;50.834;6.752;2023-04-01T12:42:51;12.50;92.20
22645;DHT22;11489;50.834;6.752;2023-04-01T12:51:06;12.50;92.40
22645;DHT22;11489;50.834;6.752;2023-04-01T12:56:37;12.70;92.70
22645;DHT22;11489;50.834;6.752;2023-04-01T13:07:54;13.10;93.20
22645;DHT22;11489;50.834;6.752;2023-04-01T13:10:44;13.20;92.40
22645;DHT22;11489;50.834;6.752;2023-04-01T13:13:21;13.20;92.10
22645;DHT22;11489;50.834;6.752;2023-04-01T13:16:27;13.20;92.60
22645;DHT22;11489;50.834;6.752;2023-04-01T13:19:16;13.30;91.80
22645;DHT22;11489;50.834;6.752;2023-04-01T13:21:54;13.30;91.80
22645;DHT22;11489;50.834;6.752;2023-04-01T13:27:34;13.30;92.00
22645;DHT22;11489;50.834;6.752;2023-04-01T13:33:00;13.20;91.60
22645;DHT22;11489;50.834;6.752;2023-04-01T13:41:51;12.90;91.60
22645;DHT22;11489;50.834;6.752;2023-04-01T13:55:53;12.90;92.00
22645;DHT22;11489;50.834;6.752;2023-04-01T13:58:50;12.90;91.60
22645;DHT22;11489;50.834;6.752;2023-04-01T14:04:29;13.00;91.80
22645;DHT22;11489;50.834;6.752;2023-04-01T14:12:19;12.80;91.80
22645;DHT22;11489;50.834;6.752;2023-04-01T14:15:15;12.80;91.20
22645;DHT22;11489;50.834;6.752;2023-04-01T14:21:00;12.70;91.80
22645;DHT22;11489;50.834;6.752;2023-04-01T14:26:35;12.60;91.90
22645;DHT22;11489;50.834;6.752;2023-04-01T14:29:12;12.60;91.40
22645;DHT22;11489;50.834;6.752;2023-04-01T14:40:22;12.40;91.70
22645;DHT22;11489;50.834;6.752;2023-04-01T14:45:45;12.30;92.20
22645;DHT22;11489;50.834;6.752;2023-04-01T14:48:31;12.40;92.10
22645;DHT22;11489;50.834;6.752;2023-04-01T14:54:13;12.40;91.60
22645;DHT22;11489;50.834;6.752;2023-04-01T14:57:13;12.30;91.80
22645;DHT22;11489;50.834;6.752;2023-04-01T14:59:41;12.30;91.50
22645;DHT22;11489;50.834;6.752;2023-04-01T15:02:31;12.30;92.10
22645;DHT22;11489;50.834;6.752;2023-04-01T15:05:23;12.30;92.00
22645;DHT22;11489;50.834;6.752;2023-04-01T15:08:14;12.30;92.10
22645;DHT22;11489;50.834;6.752;2023-04-01T15:11:17;12.40;92.10
22645;DHT22;11489;50.834;6.752;2023-04-01T15:14:17;12.40;92.10
22645;DHT22;11489;50.834;6.752;2023-04-01T15:28:13;12.50;91.80
22645;DHT22;11489;50.834;6.752;2023-04-01T15:33:39;12.50;91.40
22645;DHT22;11489;50.834;6.752;2023-04-01T15:36:29;12.50;92.00
22645;DHT22;11489;50.834;6.752;2023-04-01T15:45:01;12.60;91.60
22645;DHT22;11489;50.834;6.752;2023-04-01T15:47:37;12.60;91.50
22645;DHT22;11489;50.834;6.752;2023-04-01T15:53:14;12.50;92.00
22645;DHT22;11489;50.834;6.752;2023-04-01T16:01:22;12.60;91.70
22645;DHT22;11489;50.834;6.752;2023-04-01T16:03:57;12.60;91.80
22645;DHT22;11489;50.834;6.752;2023-04-01T16:17:52;12.40;91.30
22645;DHT22;11489;50.834;6.752;2023-04-01T16:20:23;12.30;91.60
22645;DHT22;11489;50.834;6.752;2023-04-01T16:23:18;12.20;91.60
22645;DHT22;11489;50.834;6.752;2023-04-01T16:25:49;12.20;91.10
22645;DHT22;11489;50.834;6.752;2023-04-01T16:31:34;12.10;91.10
22645;DHT22;11489;50.834;6.752;2023-04-01T16:39:41;11.90;91.30
22645;DHT22;11489;50.834;6.752;2023-04-01T16:50:22;11.60;91.40
22645;DHT22;11489;50.834;6.752;2023-04-01T17:01:07;11.30;91.80
22645;DHT22;11489;50.834;6.752;2023-04-01T17:03:44;11.30;91.80
22645;DHT22;11489;50.834;6.752;2023-04-01T17:11:43;11.20;92.00
22645;DHT22;11489;50.834;6.752;2023-04-01T17:14:46;11.10;92.00
22645;DHT22;11489;50.834;6.752;2023-04-01T17:17:27;11.20;92.00
22645;DHT22;11489;50.834;6.752;2023-04-01T17:20:14;11.10;91.90
22645;DHT22;11489;50.834;6.752;2023-04-01T17:23:01;11.00;91.80
22645;DHT22;11489;50.834;6.752;2023-04-01T17:26:05;11.00;91.90
22645;DHT22;11489;50.834;6.752;2023-04-01T17:28:41;10.90;91.90
22645;DHT22;11489;50.834;6.752;2023-04-01T17:34:17;10.80;92.10
22645;DHT22;11489;50.834;6.752;2023-04-01T17:45:48;10.50;92.30
22645;DHT22;11489;50.834;6.752;2023-04-01T17:48:27;10.50;92.30
22645;DHT22;11489;50.834;6.752;2023-04-01T17:51:58;10.50;92.40
22645;DHT22;11489;50.834;6.752;2023-04-01T18:00:06;10.30;92.40
22645;DHT22;11489;50.834;6.752;2023-04-01T18:02:57;10.30;92.60
22645;DHT22;11489;50.834;6.752;2023-04-01T18:05:36;10.20;92.60
22645;DHT22;11489;50.834;6.752;2023-04-01T18:08:15;10.10;92.60
22645;DHT22;11489;50.834;6.752;2023-04-01T18:11:04;10.10;92.60
22645;DHT22;11489;50.834;6.752;2023-04-01T18:16:30;10.00;92.70
22645;DHT22;11489;50.834;6.752;2023-04-01T18:19:27;10.00;92.70
22645;DHT22;11489;50.834;6.752;2023-04-01T18:22:08;10.00;92.80
22645;DHT22;11489;50.834;6.752;2023-04-01T18:24:45;9.90;92.80
22645;DHT22;11489;50.834;6.752;2023-04-01T18:27:21;9.90;92.80
22645;DHT22;11489;50.834;6.752;2023-04-01T18:29:54;9.80;92.60
22645;DHT22;11489;50.834;6.752;2023-04-01T18:32:35;9.80;92.90
22645;DHT22;11489;50.834;6.752;2023-04-01T18:38:13;9.80;92.90
22645;DHT22;11489;50.834;6.752;2023-04-01T18:41:02;9.70;93.00
22645;DHT22;11489;50.834;6.752;2023-04-01T18:43:43;9.70;93.00
22645;DHT22;11489;50.834;6.752;2023-04-01T18:46:22;9.70;93.00
22645;DHT22;11489;50.834;6.752;2023-04-01T18:48:59;9.60;93.10
22645;DHT22;11489;50.834;6.752;2023-04-01T18:54:22;9.60;93.20
22645;DHT22;11489;50.834;6.752;2023-04-01T18:56:49;9.60;93.20
22645;DHT22;11489;50.834;6.752;2023-04-01T18:59:40;9.60;93.20
22645;DHT22;11489;50.834;6.752;2023-04-01T19:05:18;9.60;93.30
22645;DHT22;11489;50.834;6.752;2023-04-01T19:07:51;9.60;93.20
22645;DHT22;11489;50.834;6.752;2023-04-01T19:10:31;9.50;93.30
22645;DHT22;11489;50.834;6.752;2023-04-01T19:16:13;9.50;93.30
22645;DHT22;11489;50.834;6.752;2023-04-01T19:18:47;9.50;93.30
22645;DHT22;11489;50.834;6.752;2023-04-01T19:21:37;9.50;93.40
22645;DHT22;11489;50.834;6.752;2023-04-01T19:27:42;9.40;93.40
22645;DHT22;11489;50.834;6.752;2023-04-01T19:33:32;9.40;93.50
22645;DHT22;11489;50.834;6.752;2023-04-01T19:36:15;9.40;93.50
22645;DHT22;11489;50.834;6.752;2023-04-01T19:39:03;9.40;93.50
22645;DHT22;11489;50.834;6.752;2023-04-01T19:44:12;9.40;93.60
22645;DHT22;11489;50.834;6.752;2023-04-01T19:46:49;9.40;93.60
22645;DHT22;11489;50.834;6.752;2023-04-01T19:54:28;9.30;93.70
22645;DHT22;11489;50.834;6.752;2023-04-01T19:57:34;9.40;93.70
22645;DHT22;11489;50.834;6.752;2023-04-01T20:00:09;9.40;93.70
22645;DHT22;11489;50.834;6.752;2023-04-01T20:05:36;9.40;93.80
22645;DHT22;11489;50.834;6.752;2023-04-01T20:10:55;9.40;93.80
22645;DHT22;11489;50.834;6.752;2023-04-01T20:13:28;9.40;93.90
22645;DHT22;11489;50.834;6.752;2023-04-01T20:16:06;9.40;93.90
22645;DHT22;11489;50.834;6.752;2023-04-01T20:26:43;9.40;93.80
22645;DHT22;11489;50.834;6.752;2023-04-01T20:32:30;9.40;93.80
22645;DHT22;11489;50.834;6.752;2023-04-01T20:37:44;9.40;93.80
22645;DHT22;11489;50.834;6.752;2023-04-01T20:43:35;9.30;93.90
22645;DHT22;11489;50.834;6.752;2023-04-01T20:51:39;9.30;93.90
22645;DHT22;11489;50.834;6.752;2023-04-01T20:54:27;9.30;93.90
22645;DHT22;11489;50.834;6.752;2023-04-01T20:57:11;9.30;93.90
22645;DHT22;11489;50.834;6.752;2023-04-01T21:00:22;9.30;93.90
22645;DHT22;11489;50.834;6.752;2023-04-01T21:06:10;9.30;93.90
22645;DHT22;11489;50.834;6.752;2023-04-01T21:09:02;9.30;94.00
22645;DHT22;11489;50.834;6.752;2023-04-01T21:16:47;9.30;94.00
22645;DHT22;11489;50.834;6.752;2023-04-01T21:19:25;9.20;94.00
22645;DHT22;11489;50.834;6.752;2023-04-01T21:46:37;9.20;94.20
22645;DHT22;11489;50.834;6.752;2023-04-01T21:55:13;9.20;94.20
22645;DHT22;11489;50.834;6.752;2023-04-01T21:58:10;9.20;94.30
22645;DHT22;11489;50.834;6.752;2023-04-01T22:03:28;9.10;94.30
22645;DHT22;11489;50.834;6.752;2023-04-01T22:09:01;9.10;94.30
22645;DHT22;11489;50.834;6.752;2023-04-01T22:14:37;9.10;94.40
22645;DHT22;11489;50.834;6.752;2023-04-01T22:17:10;9.20;94.40
22645;DHT22;11489;50.834;6.752;2023-04-01T22:23:30;9.20;94.40
22645;DHT22;11489;50.834;6.752;2023-04-01T22:26:23;9.20;94.50
22645;DHT22;11489;50.834;6.752;2023-04-01T22:29:12;9.20;94.50
22645;DHT22;11489;50.834;6.752;2023-04-01T22:31:51;9.20;94.60
22645;DHT22;11489;50.834;6.752;2023-04-01T22:42:26;9.20;94.60
22645;DHT22;11489;50.834;6.752;2023-04-01T22:50:24;9.30;94.80
22645;DHT22;11489;50.834;6.752;2023-04-01T22:53:02;9.30;94.80
22645;DHT22;11489;50.834;6.752;2023-04-01T22:55:34;9.30;94.80
22645;DHT22;11489;50.834;6.752;2023-04-01T22:58:17;9.30;94.80
22645;DHT22;11489;50.834;6.752;2023-04-01T23:00:54;9.30;94.80
22645;DHT22;11489;50.834;6.752;2023-04-01T23:03:32;9.40;94.80
22645;DHT22;11489;50.834;6.752;2023-04-01T23:06:02;9.30;94.70
22645;DHT22;11489;50.834;6.752;2023-04-01T23:11:48;9.40;94.60
22645;DHT22;11489;50.834;6.752;2023-04-01T23:38:41;9.10;94.40
22645;DHT22;11489;50.834;6.752;2023-04-01T23:41:16;9.00;94.40
22645;DHT22;11489;50.834;6.752;2023-04-01T23:43:43;9.00;94.40
22645;DHT22;11489;50.834;6.752;2023-04-01T23:46:12;9.00;94.40
22645;DHT22;11489;50.834;6.752;2023-04-01T23:48:43;8.90;94.30
22645;DHT22;11489;50.834;6.752;2023-04-01T23:51:38;8.90;94.30
22645;DHT22;11489;50.834;6.752;2023-04-01T23:54:18;8.90;94.30
22645;DHT22;11489;50.834;6.752;2023-04-01T23:57:06;8.80;94.30
22645;DHT22;11489;50.834;6.752;2023-04-01T23:59:36;8.80;94.40
